createdAt,value
2022-08-18T00:01:16.507Z,101140.09
2022-08-18T00:03:56.989Z,101145.28
2022-08-18T00:06:29.554Z,101145.19
2022-08-18T00:09:05.017Z,101142.69
2022-08-18T00:11:41.941Z,101150.63
2022-08-18T00:14:22.370Z,101144.22
2022-08-18T00:16:54.005Z,101149.56
2022-08-18T00:19:43.670Z,101159.97
2022-08-18T00:22:14.786Z,101159.81
2022-08-18T00:24:49.569Z,101159.59
2022-08-18T00:27:23.925Z,101146.16
2022-08-18T00:30:00.287Z,101151.56
2022-08-18T00:32:33.788Z,101154.25
2022-08-18T00:35:22.064Z,101163.13
2022-08-18T00:37:49.345Z,101168.56
2022-08-18T00:40:22.046Z,101160.66
2022-08-18T00:42:58.051Z,101157.97
2022-08-18T00:45:37.041Z,101165.16
2022-08-18T00:48:08.793Z,101166.09
2022-08-18T00:50:56.505Z,101176.56
2022-08-18T00:53:57.050Z,101174.00
2022-08-18T00:56:46.049Z,101177.63
2022-08-18T00:59:33.514Z,101173.06
2022-08-18T01:02:06.900Z,101176.69
2022-08-18T01:04:42.300Z,101186.41
2022-08-18T01:07:29.683Z,101180.13
2022-08-18T01:10:03.736Z,101174.66
2022-08-18T01:12:46.276Z,101166.66
2022-08-18T01:15:27.793Z,101164.66
2022-08-18T01:18:23.684Z,101162.97
2022-08-18T01:21:34.590Z,101161.31
2022-08-18T01:24:07.390Z,101159.97
2022-08-18T01:26:46.443Z,101159.50
2022-08-18T01:29:18.649Z,101156.13
2022-08-18T01:31:57.184Z,101149.31
2022-08-18T01:34:28.290Z,101151.50
2022-08-18T01:36:56.630Z,101143.69
2022-08-18T01:41:22.837Z,101156.06
2022-08-18T01:42:17.267Z,101153.50
2022-08-18T01:44:48.748Z,101160.69
2022-08-18T01:47:18.323Z,101161.63
2022-08-18T01:49:45.703Z,101164.09
2022-08-18T01:52:21.086Z,101175.53
2022-08-18T01:54:49.807Z,101172.69
2022-08-18T01:57:19.671Z,101176.03
2022-08-18T01:59:46.855Z,101183.00
2022-08-18T02:02:22.650Z,101166.72
2022-08-18T02:04:56.480Z,101164.06
2022-08-18T02:07:23.629Z,101166.72
2022-08-18T02:10:02.034Z,101180.00
2022-08-18T02:12:29.476Z,101174.47
2022-08-18T02:14:56.759Z,101174.47
2022-08-18T02:17:24.118Z,101171.91
2022-08-18T02:19:51.183Z,101173.63
2022-08-18T02:22:20.874Z,101166.66
2022-08-18T02:24:48.152Z,101180.75
2022-08-18T02:27:16.093Z,101174.38
2022-08-18T02:29:43.552Z,101175.22
2022-08-18T02:32:10.674Z,101184.03
2022-08-18T02:34:37.806Z,101178.78
2022-08-18T02:37:05.243Z,101189.38
2022-08-18T02:39:37.954Z,101192.88
2022-08-18T02:42:07.216Z,101191.19
2022-08-18T02:44:35.582Z,101192.13
2022-08-18T02:47:03.039Z,101186.03
2022-08-18T02:49:30.077Z,101191.53
2022-08-18T02:51:57.545Z,101198.97
2022-08-18T02:54:25.932Z,101184.91
2022-08-18T02:56:53.235Z,101187.84
2022-08-18T02:59:25.296Z,101191.66
2022-08-18T03:01:56.314Z,101194.44
2022-08-18T03:04:30.666Z,101205.19
2022-08-18T03:07:03.130Z,101205.19
2022-08-18T03:09:32.233Z,101200.91
2022-08-18T03:12:00.397Z,101194.69
2022-08-18T03:14:27.915Z,101196.50
2022-08-18T03:16:55.568Z,101195.56
2022-08-18T03:19:29.107Z,101189.44
2022-08-18T03:22:02.612Z,101184.09
2022-08-18T03:24:32.787Z,101189.63
2022-08-18T03:27:06.024Z,101183.31
2022-08-18T03:29:35.624Z,101178.94
2022-08-18T03:32:05.439Z,101172.75
2022-08-18T03:34:33.961Z,101176.38
2022-08-18T03:37:01.131Z,101181.81
2022-08-18T03:39:28.995Z,101186.19
2022-08-18T03:42:01.135Z,101173.81
2022-08-18T03:44:38.789Z,101181.97
2022-08-18T03:47:11.873Z,101182.94
2022-08-18T03:49:39.409Z,101183.81
2022-08-18T03:52:11.075Z,101184.56
2022-08-18T03:54:39.351Z,101186.28
2022-08-18T03:57:11.777Z,101183.59
2022-08-18T03:59:43.753Z,101194.28
2022-08-18T04:02:11.784Z,101192.50
2022-08-18T04:04:43.263Z,101190.84
2022-08-18T04:07:14.376Z,101190.75
2022-08-18T04:09:42.892Z,101188.16
2022-08-18T04:12:16.850Z,101184.75
2022-08-18T04:14:49.607Z,101176.81
2022-08-18T04:17:24.508Z,101181.22
2022-08-18T04:19:55.903Z,101174.34
2022-08-18T04:22:24.960Z,101172.53
2022-08-18T04:24:53.335Z,101177.75
2022-08-18T04:27:22.168Z,101172.41
2022-08-18T04:29:49.421Z,101169.94
2022-08-18T04:32:16.604Z,101176.41
2022-08-18T04:34:44.816Z,101183.06
2022-08-18T04:37:12.093Z,101188.66
2022-08-18T04:39:39.403Z,101193.13
2022-08-18T04:42:06.803Z,101189.72
2022-08-18T04:44:37.820Z,101191.41
2022-08-18T04:47:09.036Z,101202.69
2022-08-18T04:49:37.461Z,101207.88
2022-08-18T04:52:37.753Z,101209.38
2022-08-18T04:55:10.130Z,101208.38
2022-08-18T04:57:37.429Z,101212.56
2022-08-18T05:00:06.959Z,101223.06
2022-08-18T05:02:34.998Z,101222.03
2022-08-18T05:05:04.092Z,101221.84
2022-08-18T05:07:32.857Z,101220.91
2022-08-18T05:10:00.011Z,101214.78
2022-08-18T05:12:27.141Z,101215.75
2022-08-18T05:14:57.177Z,101222.03
2022-08-18T05:17:29.042Z,101224.59
2022-08-18T05:20:01.425Z,101219.09
2022-08-18T05:22:31.407Z,101228.66
2022-08-18T05:25:00.517Z,101231.13
2022-08-18T05:27:36.281Z,101227.59
2022-08-18T05:30:07.349Z,101224.16
2022-08-18T05:32:47.277Z,101220.44
2022-08-18T05:35:30.983Z,101221.91
2022-08-18T05:38:42.000Z,101225.06
2022-08-18T05:41:19.949Z,101222.22
2022-08-18T05:43:52.035Z,101221.03
2022-08-18T05:46:30.777Z,101224.09
2022-08-18T05:48:57.792Z,101220.31
2022-08-18T05:51:39.245Z,101220.97
2022-08-18T05:54:26.855Z,101227.75
2022-08-18T05:57:01.184Z,101230.22
2022-08-18T05:59:35.608Z,101230.88
2022-08-18T06:02:38.437Z,101228.91
2022-08-18T06:05:16.124Z,101241.22
2022-08-18T06:08:09.662Z,101246.19
2022-08-18T06:10:42.391Z,101247.06
2022-08-18T06:13:11.461Z,101238.94
2022-08-18T06:16:03.268Z,101241.44
2022-08-18T06:18:46.304Z,101246.50
2022-08-18T06:21:39.559Z,101258.53
2022-08-18T06:24:27.874Z,101255.28
2022-08-18T06:27:04.860Z,101255.88
2022-08-18T06:29:54.840Z,101262.94
2022-08-18T06:32:59.992Z,101264.38
2022-08-18T06:35:38.133Z,101258.91
2022-08-18T06:38:56.496Z,101266.09
2022-08-18T06:41:42.735Z,101266.94
2022-08-18T06:44:38.665Z,101264.25
2022-08-18T06:47:21.416Z,101261.47
2022-08-18T06:50:13.580Z,101263.03
2022-08-18T06:52:54.876Z,101255.69
2022-08-18T06:55:39.665Z,101265.81
2022-08-18T06:58:30.579Z,101261.78
2022-08-18T07:01:07.633Z,101263.78
2022-08-18T07:03:34.571Z,101258.22
2022-08-18T07:06:21.467Z,101256.78
2022-08-18T07:08:54.194Z,101257.50
2022-08-18T07:11:30.065Z,101268.13
2022-08-18T07:14:21.376Z,101267.63
2022-08-18T07:16:58.843Z,101277.31
2022-08-18T07:19:31.260Z,101275.91
2022-08-18T07:22:11.738Z,101274.97
2022-08-18T07:24:54.287Z,101272.16
2022-08-18T07:27:49.794Z,101268.19
2022-08-18T07:30:19.574Z,101280.94
2022-08-18T07:33:22.284Z,101282.88
2022-08-18T07:35:58.346Z,101274.00
2022-08-18T07:38:54.185Z,101280.09
2022-08-18T07:41:35.643Z,101278.75
2022-08-18T07:44:39.257Z,101284.31
2022-08-18T07:47:49.867Z,101283.16
2022-08-18T07:50:36.172Z,101282.13
2022-08-18T07:53:35.561Z,101287.06
2022-08-18T07:56:23.442Z,101288.09
2022-08-18T07:59:07.158Z,101283.16
2022-08-18T08:01:56.324Z,101266.47
2022-08-18T08:05:06.774Z,101266.47
2022-08-18T08:07:59.676Z,101261.84
2022-08-18T08:10:44.826Z,101265.50
2022-08-18T08:13:54.286Z,101271.97
2022-08-18T08:17:00.021Z,101268.84
2022-08-18T08:20:00.445Z,101268.06
2022-08-18T08:23:09.451Z,101277.38
2022-08-18T08:26:15.757Z,101274.41
2022-08-18T08:29:06.713Z,101287.34
2022-08-18T08:31:49.964Z,101287.34
2022-08-18T08:34:29.333Z,101283.38
2022-08-18T08:37:05.678Z,101288.13
2022-08-18T08:39:43.154Z,101278.03
2022-08-18T08:42:30.263Z,101291.28
2022-08-18T08:45:08.531Z,101279.06
2022-08-18T08:48:09.337Z,101286.88
2022-08-18T08:50:57.675Z,101283.63
2022-08-18T08:53:45.479Z,101289.63
2022-08-18T08:56:16.903Z,101298.81
2022-08-18T08:58:58.977Z,101301.81
2022-08-18T09:01:58.955Z,101303.56
2022-08-18T09:05:08.048Z,101303.78
2022-08-18T09:08:02.968Z,101293.75
2022-08-18T09:11:34.524Z,101298.88
2022-08-18T09:14:30.960Z,101296.94
2022-08-18T09:17:33.888Z,101297.56
2022-08-18T09:20:40.192Z,101296.97
2022-08-18T09:23:43.394Z,101305.16
2022-08-18T09:26:40.078Z,101299.28
2022-08-18T09:29:18.298Z,101297.91
2022-08-18T09:31:46.735Z,101299.91
2022-08-18T09:34:47.979Z,101303.25
2022-08-18T09:37:41.796Z,101297.28
2022-08-18T09:41:02.046Z,101303.09
2022-08-18T09:43:39.250Z,101292.34
2022-08-18T09:46:08.672Z,101297.72
2022-08-18T09:48:42.947Z,101289.53
2022-08-18T09:51:15.718Z,101289.28
2022-08-18T09:53:47.586Z,101296.63
2022-08-18T09:56:38.664Z,101287.59
2022-08-18T10:00:18.623Z,101290.91
2022-08-18T10:02:50.536Z,101288.50
2022-08-18T10:05:17.626Z,101297.41
2022-08-18T10:08:03.491Z,101306.34
2022-08-18T10:14:21.098Z,101299.28
2022-08-18T10:17:35.564Z,101286.19
2022-08-18T10:20:30.560Z,101289.63
2022-08-18T10:22:57.979Z,101279.06
2022-08-18T10:25:41.028Z,101280.88
2022-08-18T10:29:05.628Z,101280.13
2022-08-18T10:31:55.609Z,101271.19
2022-08-18T10:34:51.743Z,101270.72
2022-08-18T10:37:37.725Z,101274.75
2022-08-18T10:40:13.411Z,101281.84
2022-08-18T10:45:59.451Z,101274.84
2022-08-18T10:48:34.669Z,101274.78
2022-08-18T10:55:00.606Z,101284.59
2022-08-18T10:57:55.322Z,101287.16
2022-08-18T11:01:01.040Z,101287.16
2022-08-18T11:04:14.018Z,101287.06
2022-08-18T11:06:48.840Z,101287.06
2022-08-18T11:09:28.176Z,101281.31
2022-08-18T11:12:02.185Z,101283.66
2022-08-18T11:15:00.297Z,101280.22
2022-08-18T11:17:52.234Z,101288.81
2022-08-18T11:20:24.458Z,101276.28
2022-08-18T11:22:57.953Z,101265.72
2022-08-18T11:25:32.342Z,101253.22
2022-08-18T11:28:01.651Z,101255.47
2022-08-18T11:30:37.468Z,101245.47
2022-08-18T11:33:07.299Z,101250.03
2022-08-18T11:35:48.786Z,101244.16
2022-08-18T11:38:23.101Z,101238.72
2022-08-18T11:41:14.186Z,101238.63
2022-08-18T11:43:47.393Z,101240.41
2022-08-18T11:46:24.938Z,101239.94
2022-08-18T11:48:55.956Z,101236.03
2022-08-18T11:51:28.437Z,101238.84
2022-08-18T11:54:01.295Z,101230.00
2022-08-18T11:56:35.900Z,101230.81
2022-08-18T11:59:54.742Z,101228.81
2022-08-18T12:02:25.906Z,101223.38
2022-08-18T12:05:03.494Z,101223.38
2022-08-18T12:07:56.987Z,101215.91
2022-08-18T12:10:28.762Z,101217.25
2022-08-18T12:13:01.337Z,101223.63
2022-08-18T12:15:44.313Z,101221.34
2022-08-18T12:18:26.021Z,101221.00
2022-08-18T12:21:06.505Z,101223.31
2022-08-18T12:23:44.797Z,101219.69
2022-08-18T12:26:26.895Z,101215.84
2022-08-18T12:29:04.784Z,101207.47
2022-08-18T12:31:42.410Z,101200.66
2022-08-18T12:34:17.849Z,101200.34
2022-08-18T12:36:55.580Z,101200.19
2022-08-18T12:39:23.945Z,101209.53
2022-08-18T12:41:51.497Z,101215.59
2022-08-18T12:44:19.368Z,101215.16
2022-08-18T12:46:48.468Z,101211.03
2022-08-18T12:49:23.587Z,101209.16
2022-08-18T12:51:54.528Z,101205.97
2022-08-18T12:54:22.824Z,101218.53
2022-08-18T12:56:55.189Z,101223.09
2022-08-18T12:59:24.929Z,101218.38
2022-08-18T13:04:40.137Z,101228.59
2022-08-18T13:07:10.121Z,101239.78
2022-08-18T13:09:53.272Z,101234.72
2022-08-18T13:12:25.457Z,101250.72
2022-08-18T13:14:54.932Z,101250.00
2022-08-18T13:17:29.798Z,101251.72
2022-08-18T13:20:06.297Z,101249.44
2022-08-18T13:22:36.917Z,101248.97
2022-08-18T13:25:07.240Z,101254.66
2022-08-18T13:27:37.590Z,101253.50
2022-08-18T13:30:29.465Z,101249.91
2022-08-18T13:33:00.551Z,101247.81
2022-08-18T13:35:38.259Z,101246.97
2022-08-18T13:38:20.643Z,101242.25
2022-08-18T13:40:50.914Z,101241.41
2022-08-18T13:43:25.981Z,101231.09
2022-08-18T13:45:56.046Z,101234.84
2022-08-18T13:48:25.562Z,101225.75
2022-08-18T13:50:55.908Z,101217.13
2022-08-18T13:53:26.247Z,101217.66
2022-08-18T13:55:59.695Z,101217.13
2022-08-18T13:58:29.079Z,101223.72
2022-08-18T14:01:22.418Z,101219.06
2022-08-18T14:03:49.979Z,101204.16
2022-08-18T14:06:22.752Z,101211.72
2022-08-18T14:08:53.852Z,101210.72
2022-08-18T14:11:32.839Z,101208.91
2022-08-18T14:14:02.288Z,101215.44
2022-08-18T14:16:30.027Z,101217.88
2022-08-18T14:19:17.669Z,101203.06
2022-08-18T14:22:11.483Z,101198.09
2022-08-18T14:25:00.525Z,101199.09
2022-08-18T14:27:35.789Z,101199.91
2022-08-18T14:30:11.621Z,101197.78
2022-08-18T14:32:48.885Z,101197.09
2022-08-18T14:35:33.478Z,101194.25
2022-08-18T14:38:09.113Z,101190.38
2022-08-18T14:40:41.729Z,101183.00
2022-08-18T14:43:14.287Z,101187.97
2022-08-18T14:45:47.388Z,101183.00
2022-08-18T14:48:21.783Z,101177.28
2022-08-18T14:50:54.419Z,101187.09
2022-08-18T14:53:28.668Z,101189.09
2022-08-18T14:55:57.746Z,101183.56
2022-08-18T14:58:29.966Z,101182.56
2022-08-18T15:01:01.657Z,101168.47
2022-08-18T15:03:31.896Z,101170.31
2022-08-18T15:06:04.832Z,101173.03
2022-08-18T15:08:35.635Z,101169.59
2022-08-18T15:11:06.219Z,101173.88
2022-08-18T15:13:45.195Z,101178.88
2022-08-18T15:16:15.785Z,101173.69
2022-08-18T15:18:47.292Z,101176.56
2022-08-18T15:21:38.918Z,101176.53
2022-08-18T15:24:26.266Z,101173.44
2022-08-18T15:27:03.184Z,101175.78
2022-08-18T15:29:34.217Z,101166.06
2022-08-18T15:32:06.167Z,101169.50
2022-08-18T15:34:46.998Z,101170.44
2022-08-18T15:37:24.152Z,101171.78
2022-08-18T15:40:30.249Z,101170.69
2022-08-18T15:43:01.738Z,101164.63
2022-08-18T15:45:35.587Z,101170.13
2022-08-18T15:48:04.128Z,101171.22
2022-08-18T15:50:31.316Z,101165.16
2022-08-18T15:53:07.927Z,101169.28
2022-08-18T15:55:39.648Z,101162.75
2022-08-18T15:58:11.007Z,101166.69
2022-08-18T16:00:45.797Z,101165.91
2022-08-18T16:03:15.896Z,101165.16
2022-08-18T16:05:52.971Z,101162.19
2022-08-18T16:08:23.560Z,101163.25
2022-08-18T16:10:52.570Z,101165.00
2022-08-18T16:13:20.900Z,101167.25
2022-08-18T16:15:49.890Z,101162.16
2022-08-18T16:18:21.080Z,101167.31
2022-08-18T16:20:52.625Z,101165.13
2022-08-18T16:23:20.312Z,101169.94
2022-08-18T16:25:47.222Z,101160.09
2022-08-18T16:28:14.193Z,101160.09
2022-08-18T16:30:41.896Z,101161.50
2022-08-18T16:33:09.491Z,101160.34
2022-08-18T16:35:37.493Z,101163.41
2022-08-18T16:38:09.398Z,101163.97
2022-08-18T16:40:37.683Z,101163.72
2022-08-18T16:43:05.916Z,101162.91
2022-08-18T16:45:36.112Z,101163.91
2022-08-18T16:48:04.128Z,101162.94
2022-08-18T16:50:31.090Z,101166.88
2022-08-18T16:52:58.297Z,101157.94
2022-08-18T16:55:25.567Z,101155.34
2022-08-18T16:58:15.333Z,101152.97
2022-08-18T17:01:02.429Z,101156.75
2022-08-18T17:03:48.308Z,101160.81
2022-08-18T17:06:18.371Z,101163.75
2022-08-18T17:08:46.208Z,101157.03
2022-08-18T17:11:17.975Z,101156.38
2022-08-18T17:13:48.500Z,101146.69
2022-08-18T17:16:18.583Z,101151.59
2022-08-18T17:18:47.028Z,101152.16
2022-08-18T17:21:24.147Z,101154.25
2022-08-18T17:23:52.377Z,101146.91
2022-08-18T17:27:26.754Z,101144.50
2022-08-18T17:30:00.438Z,101147.06
2022-08-18T17:32:46.605Z,101143.41
2022-08-18T17:35:28.623Z,101142.59
2022-08-18T17:38:21.024Z,101138.44
2022-08-18T17:40:54.958Z,101133.16
2022-08-18T17:43:29.657Z,101137.66
2022-08-18T17:46:27.486Z,101135.66
2022-08-18T17:49:54.196Z,101136.78
2022-08-18T17:52:52.639Z,101135.72
2022-08-18T17:55:49.699Z,101138.06
2022-08-18T17:58:50.912Z,101138.63
2022-08-18T18:01:18.261Z,101138.19
2022-08-18T18:03:45.576Z,101139.13
2022-08-18T18:06:31.681Z,101143.25
2022-08-18T18:09:08.099Z,101141.69
2022-08-18T18:11:41.836Z,101138.97
2022-08-18T18:14:35.902Z,101135.97
2022-08-18T18:17:14.653Z,101140.34
2022-08-18T18:19:45.139Z,101143.03
2022-08-18T18:22:28.451Z,101143.41
2022-08-18T18:25:03.311Z,101146.16
2022-08-18T18:27:41.912Z,101143.13
2022-08-18T18:30:27.806Z,101146.88
2022-08-18T18:33:05.503Z,101142.56
2022-08-18T18:35:54.713Z,101132.97
2022-08-18T18:38:29.267Z,101135.00
2022-08-18T18:41:26.237Z,101136.19
2022-08-18T18:44:09.090Z,101131.94
2022-08-18T18:47:01.345Z,101127.69
2022-08-18T18:50:08.834Z,101134.38
2022-08-18T18:53:04.040Z,101135.75
2022-08-18T18:55:42.051Z,101135.16
2022-08-18T18:58:27.300Z,101146.06
2022-08-18T19:00:59.598Z,101154.03
2022-08-18T19:03:43.497Z,101153.03
2022-08-18T19:06:54.861Z,101147.66
2022-08-18T19:09:42.132Z,101147.63
2022-08-18T19:12:33.737Z,101152.00
2022-08-18T19:15:10.553Z,101158.00
2022-08-18T19:17:49.549Z,101152.38
2022-08-18T19:20:42.472Z,101161.25
2022-08-18T19:23:44.909Z,101158.66
2022-08-18T19:26:27.160Z,101163.03
2022-08-18T19:29:13.580Z,101170.38
2022-08-18T19:32:15.810Z,101164.13
2022-08-18T19:34:51.541Z,101167.72
2022-08-18T19:37:41.272Z,101175.69
2022-08-18T19:40:27.248Z,101172.09
2022-08-18T19:43:06.143Z,101177.28
2022-08-18T19:46:10.586Z,101175.38
2022-08-18T19:48:54.538Z,101168.09
2022-08-18T19:51:39.651Z,101173.63
2022-08-18T19:54:40.516Z,101167.13
2022-08-18T19:58:14.465Z,101164.13
2022-08-18T20:00:57.733Z,101168.31
2022-08-18T20:04:13.323Z,101168.66
2022-08-18T20:07:31.610Z,101185.06
2022-08-18T20:10:32.273Z,101179.25
2022-08-18T20:13:42.488Z,101192.22
2022-08-18T20:16:43.419Z,101189.22
2022-08-18T20:20:13.298Z,101193.38
2022-08-18T20:22:46.091Z,101194.03
2022-08-18T20:25:17.401Z,101191.66
2022-08-18T20:27:50.317Z,101187.50
2022-08-18T20:30:20.004Z,101188.50
2022-08-18T20:33:09.175Z,101187.00
2022-08-18T20:35:46.880Z,101189.13
2022-08-18T20:38:19.863Z,101187.72
2022-08-18T20:40:51.365Z,101182.47
2022-08-18T20:43:32.632Z,101181.81
2022-08-18T20:46:36.252Z,101182.97
2022-08-18T20:49:48.161Z,101182.63
2022-08-18T20:53:02.924Z,101182.84
2022-08-18T20:55:53.113Z,101182.47
2022-08-18T20:58:32.195Z,101179.28
2022-08-18T21:01:01.462Z,101183.22
2022-08-18T21:03:43.456Z,101180.91
2022-08-18T21:06:15.457Z,101185.41
2022-08-18T21:08:51.104Z,101190.00
2022-08-18T21:11:32.166Z,101191.06
2022-08-18T21:14:04.321Z,101192.03
2022-08-18T21:16:42.451Z,101192.97
2022-08-18T21:19:29.428Z,101192.22
2022-08-18T21:22:01.800Z,101200.34
2022-08-18T21:24:38.770Z,101203.13
2022-08-18T21:27:26.197Z,101203.31
2022-08-18T21:30:00.545Z,101213.38
2022-08-18T21:32:33.632Z,101207.44
2022-08-18T21:35:17.855Z,101214.78
2022-08-18T21:37:59.134Z,101215.06
2022-08-18T21:40:45.433Z,101214.50
2022-08-18T21:43:33.584Z,101214.81
2022-08-18T21:46:03.142Z,101211.44
2022-08-18T21:48:31.491Z,101205.44
2022-08-18T21:51:01.458Z,101206.47
2022-08-18T21:53:35.187Z,101213.84
2022-08-18T21:56:02.277Z,101218.41
2022-08-18T21:58:41.358Z,101210.59
2022-08-18T22:01:30.036Z,101215.25
2022-08-18T22:04:00.190Z,101213.75
2022-08-18T22:06:33.124Z,101211.38
2022-08-18T22:09:29.928Z,101212.38
2022-08-18T22:12:51.275Z,101219.84
2022-08-18T22:15:20.560Z,101213.84
2022-08-18T22:18:18.231Z,101210.38
2022-08-18T22:20:54.492Z,101220.41
2022-08-18T22:23:56.179Z,101223.16
2022-08-18T22:26:35.388Z,101228.59
2022-08-18T22:29:42.425Z,101223.53
2022-08-18T22:32:13.723Z,101218.38
2022-08-18T22:34:42.078Z,101231.94
2022-08-18T22:37:19.277Z,101224.88
2022-08-18T22:40:11.072Z,101232.88
2022-08-18T22:42:38.813Z,101220.66
2022-08-18T22:45:13.611Z,101231.25
2022-08-18T22:47:43.684Z,101229.72
2022-08-18T22:50:13.819Z,101228.94
2022-08-18T22:52:46.577Z,101227.22
2022-08-18T22:55:22.138Z,101229.03
2022-08-18T22:57:55.801Z,101228.34
2022-08-18T23:00:25.488Z,101226.69
2022-08-18T23:02:54.595Z,101221.56
2022-08-18T23:05:22.152Z,101222.56
2022-08-18T23:07:49.900Z,101232.56
2022-08-18T23:10:17.638Z,101230.09
2022-08-18T23:12:47.137Z,101232.00
2022-08-18T23:15:17.539Z,101229.50
2022-08-18T23:17:44.716Z,101226.06
2022-08-18T23:20:17.803Z,101222.63
2022-08-18T23:22:47.666Z,101228.16
2022-08-18T23:25:15.790Z,101234.53
2022-08-18T23:27:43.096Z,101224.88
2022-08-18T23:30:11.583Z,101224.13
2022-08-18T23:32:38.808Z,101225.22
2022-08-18T23:35:06.282Z,101217.50
2022-08-18T23:37:33.402Z,101230.94
2022-08-18T23:40:00.603Z,101226.63
2022-08-18T23:42:27.809Z,101224.22
2022-08-18T23:44:58.875Z,101222.47
2022-08-18T23:47:26.249Z,101221.81
2022-08-18T23:49:54.349Z,101229.03
2022-08-18T23:52:21.570Z,101227.50
2022-08-18T23:54:48.667Z,101224.91
2022-08-18T23:57:15.852Z,101221.56
2022-08-18T23:59:42.873Z,101223.53
